Time;durP1;ratioP1;P1;durP2;ratioP2;P2;SDS_P1;SDS_P2;PMS_P1;PMS_P2;Temp;Humidity;BMP_temperature;BMP_pressure;BME280_temperature;BME280_humidity;BME280_pressure;Samples;Min_cycle;Max_cycle;Signal;HPM_P1;HPM_P2
2023/03/04 00:01:18;;;;;;;;;;;;;;;;;;5038181;28;20075;-56
2023/03/04 00:03:44;;;;;;;;;;;;;;;;;;5040174;28;19925;-56
2023/03/04 00:06:10;;;;;;;;;;;;;;;;;;5043897;28;19952;-56
2023/03/04 00:08:37;;;;;;;;;;;;;;;;;;5030703;28;20311;-57
2023/03/04 00:11:03;;;;;;;;;;;;;;;;;;5042645;28;20052;-57
2023/03/04 00:13:29;;;;;;;;;;;;;;;;;;5036893;28;20353;-54
2023/03/04 00:15:55;;;;;;;;;;;;;;;;;;5036390;28;19931;-57
2023/03/04 00:18:21;;;;;;;;;;;;;;;;;;5039755;28;19921;-56
2023/03/04 00:20:48;;;;;;;;;;;;;;;;;;5038379;28;19924;-57
2023/03/04 00:23:14;;;;;;;;;;;;;;;;;;5037410;28;19924;-55
2023/03/04 00:25:40;;;;;;;;;;;;;;;;;;5042375;28;20003;-56
2023/03/04 00:28:06;;;;;;;;;;;;;;;;;;5036525;28;20025;-55
2023/03/04 00:30:32;;;;;;;;;;;;;;;;;;5037389;28;20314;-56
2023/03/04 00:32:58;;;;;;;;;;;;;;;;;;5035315;28;19925;-57
2023/03/04 00:35:24;;;;;;;;;;;;;;;;;;5041906;28;19931;-57
2023/03/04 00:37:50;;;;;;;;;;;;;;;;;;5037836;28;19925;-57
2023/03/04 00:40:16;;;;;;;;;;;;;;;;;;5034137;28;20286;-57
2023/03/04 00:42:42;;;;;;;;;;;;;;;;;;5038172;28;20466;-57
2023/03/04 00:45:08;;;;;;;;;;;;;;;;;;5040746;28;19970;-56
2023/03/04 00:47:34;;;;;;;;;;;;;;;;;;5034278;28;19929;-57
2023/03/04 00:50:00;;;;;;;;;;;;;;;;;;5044599;28;20411;-57
2023/03/04 00:52:26;;;;;;;;;;;;;;;;;;5041819;28;19943;-50
2023/03/04 00:54:52;;;;;;;;;;;;;;;;;;5038320;28;19925;-52
2023/03/04 00:57:18;;;;;;;;;;;;;;;;;;5034359;28;20294;-56
2023/03/04 00:59:45;;;;;;;;;;;;;;;;;;5038036;28;19925;-56
2023/03/04 01:02:11;;;;;;;;;;;;;;;;;;5034311;28;19925;-57
2023/03/04 01:04:37;;;;;;;;;;;;;;;;;;5039781;28;20286;-57
2023/03/04 01:07:03;;;;;;;;;;;;;;;;;;5036879;28;19921;-56
2023/03/04 01:09:29;;;;;;;;;;;;;;;;;;5032337;28;19969;-51
2023/03/04 01:11:55;;;;;;;;;;;;;;;;;;5037893;28;19924;-57
2023/03/04 01:14:21;;;;;;;;;;;;;;;;;;5044263;28;19924;-53
2023/03/04 01:16:47;;;;;;;;;;;;;;;;;;5041896;28;20643;-57
2023/03/04 01:19:13;;;;;;;;;;;;;;;;;;5041653;28;19932;-56
2023/03/04 01:21:39;;;;;;;;;;;;;;;;;;5036274;28;19925;-57
2023/03/04 01:24:05;;;;;;;;;;;;;;;;;;5047796;28;19944;-56
2023/03/04 01:26:31;;;;;;;;;;;;;;;;;;5035936;28;20371;-55
2023/03/04 01:28:57;;;;;;;;;;;;;;;;;;5044042;28;19940;-57
2023/03/04 01:31:23;;;;;;;;;;;;;;;;;;5048119;28;19964;-57
2023/03/04 01:33:49;;;;;;;;;;;;;;;;;;5041976;28;20434;-57
2023/03/04 01:36:15;;;;;;;;;;;;;;;;;;5031305;28;19925;-57
2023/03/04 01:38:40;;;;;;;;;;;;;;;;;;5048557;28;19974;-57
2023/03/04 01:41:06;;;;;;;;;;;;;;;;;;5040199;28;20461;-56
2023/03/04 01:43:32;;;;;;;;;;;;;;;;;;5035786;28;19932;-57
2023/03/04 01:45:59;;;;;;;;;;;;;;;;;;5041478;28;19925;-56
2023/03/04 01:48:24;;;;;;;;;;;;;;;;;;5035592;28;19933;-56
2023/03/04 01:50:50;;;;;;;;;;;;;;;;;;5033967;28;20310;-53
2023/03/04 01:53:16;;;;;;;;;;;;;;;;;;5040535;28;20419;-56
2023/03/04 01:55:42;;;;;;;;;;;;;;;;;;5037864;28;19936;-55
2023/03/04 01:58:08;;;;;;;;;;;;;;;;;;5032837;28;20630;-56
2023/03/04 02:00:36;;;;;;;;;;;;;;;;;;5044291;28;19925;-55
2023/03/04 02:03:02;;;;;;;;;;;;;;;;;;5041436;28;20385;-54
2023/03/04 02:05:28;;;;;;;;;;;;;;;;;;5118277;23;20407;-55
2023/03/04 02:07:54;;;;;;;;;;;;;;;;;;5069257;28;19924;-55
2023/03/04 02:10:20;;;;;;;;;;;;;;;;;;5070022;28;20282;-57
2023/03/04 02:12:46;;;;;;;;;;;;;;;;;;5069331;28;19924;-56
2023/03/04 02:15:12;;;;;;;;;;;;;;;;;;5069414;28;19935;-57
2023/03/04 02:17:38;;;;;;;;;;;;;;;;;;5069241;28;20369;-57
2023/03/04 02:20:04;;;;;;;;;;;;;;;;;;5068588;28;20385;-58
2023/03/04 02:22:30;;;;;;;;;;;;;;;;;;5068241;28;19932;-56
2023/03/04 02:24:56;;;;;;;;;;;;;;;;;;5068952;28;19943;-57
2023/03/04 02:27:22;;;;;;;;;;;;;;;;;;5069112;28;20254;-57
2023/03/04 02:29:48;;;;;;;;;;;;;;;;;;5069515;28;19978;-54
2023/03/04 02:32:14;;;;;;;;;;;;;;;;;;5069812;28;19920;-57
2023/03/04 02:34:40;;;;;;;;;;;;;;;;;;5068510;28;20289;-56
2023/03/04 02:37:06;;;;;;;;;;;;;;;;;;5069351;28;19924;-57
2023/03/04 02:39:32;;;;;;;;;;;;;;;;;;5069341;28;20369;-56
2023/03/04 02:41:58;;;;;;;;;;;;;;;;;;5068888;28;19943;-57
2023/03/04 02:44:24;;;;;;;;;;;;;;;;;;5068951;28;20316;-56
2023/03/04 02:46:50;;;;;;;;;;;;;;;;;;5069737;28;20262;-57
2023/03/04 02:49:16;;;;;;;;;;;;;;;;;;5064735;28;20397;-56
2023/03/04 02:51:42;;;;;;;;;;;;;;;;;;5068970;28;19929;-57
2023/03/04 02:54:08;;;;;;;;;;;;;;;;;;5069206;28;19932;-56
2023/03/04 02:56:34;;;;;;;;;;;;;;;;;;5069017;28;19924;-57
2023/03/04 02:59:01;;;;;;;;;;;;;;;;;;5068649;28;19933;-56
2023/03/04 03:01:27;;;;;;;;;;;;;;;;;;5068738;28;20366;-56
2023/03/04 03:03:53;;;;;;;;;;;;;;;;;;5068769;28;20019;-56
2023/03/04 03:06:19;;;;;;;;;;;;;;;;;;5068396;28;19925;-56
2023/03/04 03:08:45;;;;;;;;;;;;;;;;;;5068826;28;20365;-56
2023/03/04 03:11:11;;;;;;;;;;;;;;;;;;5068538;28;19924;-57
2023/03/04 03:13:37;;;;;;;;;;;;;;;;;;5068293;28;19936;-55
2023/03/04 03:16:05;;;;;;;;;;;;;;;;;;5067974;28;21204;-57
2023/03/04 03:18:31;;;;;;;;;;;;;;;;;;5068403;28;19924;-56
2023/03/04 03:20:57;;;;;;;;;;;;;;;;;;5067644;28;19951;-57
2023/03/04 03:23:23;;;;;;;;;;;;;;;;;;5068159;28;19932;-54
2023/03/04 03:25:49;;;;;;;;;;;;;;;;;;5068263;28;20644;-56
2023/03/04 03:28:15;;;;;;;;;;;;;;;;;;5068116;28;20011;-57
2023/03/04 03:30:41;;;;;;;;;;;;;;;;;;5068495;28;19972;-57
2023/03/04 03:33:07;;;;;;;;;;;;;;;;;;5068246;28;19978;-56
2023/03/04 03:35:33;;;;;;;;;;;;;;;;;;5066350;28;20442;-57
2023/03/04 03:37:59;;;;;;;;;;;;;;;;;;5068039;28;19931;-57
2023/03/04 03:40:25;;;;;;;;;;;;;;;;;;5068046;28;19940;-57
2023/03/04 03:42:51;;;;;;;;;;;;;;;;;;5068281;28;20431;-56
2023/03/04 03:45:17;;;;;;;;;;;;;;;;;;5068103;28;19929;-56
2023/03/04 03:47:43;;;;;;;;;;;;;;;;;;5067962;28;19921;-56
2023/03/04 03:50:09;;;;;;;;;;;;;;;;;;5066897;28;20385;-56
2023/03/04 03:52:35;;;;;;;;;;;;;;;;;;5067230;28;20003;-56
2023/03/04 03:55:01;;;;;;;;;;;;;;;;;;5067371;28;19924;-55
2023/03/04 03:57:27;;;;;;;;;;;;;;;;;;5067041;28;19924;-56
2023/03/04 03:59:53;;;;;;;;;;;;;;;;;;5067391;28;20368;-55
2023/03/04 04:02:19;;;;;;;;;;;;;;;;;;5068151;28;19977;-56
2023/03/04 04:04:45;;;;;;;;;;;;;;;;;;5066510;28;19979;-56
2023/03/04 04:07:11;;;;;;;;;;;;;;;;;;5067271;28;19929;-56
2023/03/04 04:09:37;;;;;;;;;;;;;;;;;;5067017;28;19932;-56
2023/03/04 04:12:03;;;;;;;;;;;;;;;;;;5067627;28;19932;-55
2023/03/04 04:14:29;;;;;;;;;;;;;;;;;;5067138;28;19924;-57
2023/03/04 04:16:55;;;;;;;;;;;;;;;;;;5067192;28;19931;-56
2023/03/04 04:19:21;;;;;;;;;;;;;;;;;;5066804;28;19978;-55
2023/03/04 04:21:47;;;;;;;;;;;;;;;;;;5067556;28;20418;-55
2023/03/04 04:24:13;;;;;;;;;;;;;;;;;;5067143;28;19924;-56
2023/03/04 04:26:39;;;;;;;;;;;;;;;;;;5066938;28;20281;-53
2023/03/04 04:29:05;;;;;;;;;;;;;;;;;;5067271;28;19932;-56
2023/03/04 04:31:31;;;;;;;;;;;;;;;;;;5066759;28;19963;-53
2023/03/04 04:33:57;;;;;;;;;;;;;;;;;;5066993;28;19928;-56
2023/03/04 04:36:23;;;;;;;;;;;;;;;;;;5066998;28;19924;-54
2023/03/04 04:38:49;;;;;;;;;;;;;;;;;;5067353;28;20424;-56
2023/03/04 04:41:15;;;;;;;;;;;;;;;;;;5049154;28;19931;-56
2023/03/04 04:43:41;;;;;;;;;;;;;;;;;;5067062;28;19928;-57
2023/03/04 04:46:07;;;;;;;;;;;;;;;;;;5067199;28;19932;-55
2023/03/04 04:48:33;;;;;;;;;;;;;;;;;;5067080;28;20361;-56
2023/03/04 04:50:59;;;;;;;;;;;;;;;;;;5066480;28;19924;-54
2023/03/04 04:53:25;;;;;;;;;;;;;;;;;;5066692;28;19932;-56
2023/03/04 04:55:51;;;;;;;;;;;;;;;;;;5067320;28;20370;-56
2023/03/04 04:58:17;;;;;;;;;;;;;;;;;;5067150;28;20011;-56
2023/03/04 05:00:43;;;;;;;;;;;;;;;;;;5067047;28;19985;-56
2023/03/04 05:03:09;;;;;;;;;;;;;;;;;;5067107;28;19924;-56
2023/03/04 05:05:35;;;;;;;;;;;;;;;;;;5065571;28;19925;-56
2023/03/04 05:08:01;;;;;;;;;;;;;;;;;;5066871;28;20057;-56
2023/03/04 05:10:27;;;;;;;;;;;;;;;;;;5066501;28;20019;-56
2023/03/04 05:12:53;;;;;;;;;;;;;;;;;;5066689;28;20332;-55
2023/03/04 05:15:19;;;;;;;;;;;;;;;;;;5066995;28;19925;-56
2023/03/04 05:17:45;;;;;;;;;;;;;;;;;;5066826;28;19924;-55
2023/03/04 05:20:11;;;;;;;;;;;;;;;;;;5066165;28;19924;-57
2023/03/04 05:22:37;;;;;;;;;;;;;;;;;;5066267;28;20397;-56
2023/03/04 05:25:03;;;;;;;;;;;;;;;;;;5066228;28;19925;-56
2023/03/04 05:27:29;;;;;;;;;;;;;;;;;;5065937;28;19931;-56
2023/03/04 05:29:58;;;;;;;;;;;;;;;;;;5066519;28;20258;-57
2023/03/04 05:32:24;;;;;;;;;;;;;;;;;;5066262;28;19930;-56
2023/03/04 05:34:50;;;;;;;;;;;;;;;;;;5066142;28;20003;-57
2023/03/04 05:37:16;;;;;;;;;;;;;;;;;;5066030;28;20293;-56
2023/03/04 05:39:42;;;;;;;;;;;;;;;;;;5066133;28;19934;-56
2023/03/04 05:42:08;;;;;;;;;;;;;;;;;;5067057;28;19928;-57
2023/03/04 05:44:34;;;;;;;;;;;;;;;;;;5066378;28;19963;-52
2023/03/04 05:47:00;;;;;;;;;;;;;;;;;;5066437;28;19964;-56
2023/03/04 05:49:26;;;;;;;;;;;;;;;;;;5066052;28;20007;-56
2023/03/04 05:51:52;;;;;;;;;;;;;;;;;;5066151;28;19932;-55
2023/03/04 05:54:18;;;;;;;;;;;;;;;;;;5066633;28;19932;-55
2023/03/04 05:56:44;;;;;;;;;;;;;;;;;;5066224;28;19928;-56
2023/03/04 05:59:10;;;;;;;;;;;;;;;;;;5068995;28;20020;-56
2023/03/04 06:01:36;;;;;;;;;;;;;;;;;;5067573;28;19932;-55
2023/03/04 06:04:02;;;;;;;;;;;;;;;;;;5063677;28;19959;-56
2023/03/04 06:06:28;;;;;;;;;;;;;;;;;;5069502;28;19924;-56
2023/03/04 06:08:54;;;;;;;;;;;;;;;;;;5068254;28;19978;-56
2023/03/04 06:11:20;;;;;;;;;;;;;;;;;;5051509;28;19936;-56
2023/03/04 06:13:46;;;;;;;;;;;;;;;;;;5068845;28;19924;-56
2023/03/04 06:16:13;;;;;;;;;;;;;;;;;;5068148;28;19932;-54
2023/03/04 06:18:39;;;;;;;;;;;;;;;;;;5051103;28;20015;-56
2023/03/04 06:21:05;;;;;;;;;;;;;;;;;;5068647;28;20288;-56
2023/03/04 06:23:31;;;;;;;;;;;;;;;;;;5067012;28;19977;-57
2023/03/04 06:25:57;;;;;;;;;;;;;;;;;;5067423;28;19933;-56
2023/03/04 06:28:23;;;;;;;;;;;;;;;;;;5066116;28;21479;-56
2023/03/04 06:30:49;;;;;;;;;;;;;;;;;;5067306;28;19924;-57
2023/03/04 06:33:15;;;;;;;;;;;;;;;;;;5065550;28;19921;-54
2023/03/04 06:35:41;;;;;;;;;;;;;;;;;;5060252;28;20436;-57
2023/03/04 06:38:07;;;;;;;;;;;;;;;;;;5057113;28;20012;-53
2023/03/04 06:40:33;;;;;;;;;;;;;;;;;;5071347;28;20007;-57
2023/03/04 06:42:59;;;;;;;;;;;;;;;;;;5066696;28;20039;-55
2023/03/04 06:45:25;;;;;;;;;;;;;;;;;;5055579;28;19924;-56
2023/03/04 06:47:51;;;;;;;;;;;;;;;;;;5061435;28;19925;-57
2023/03/04 06:50:17;;;;;;;;;;;;;;;;;;5064374;28;19947;-57
2023/03/04 06:52:43;;;;;;;;;;;;;;;;;;5060996;28;19925;-57
2023/03/04 06:55:09;;;;;;;;;;;;;;;;;;5043161;28;19925;-57
2023/03/04 06:57:35;;;;;;;;;;;;;;;;;;5059903;28;19932;-57
2023/03/04 07:00:02;;;;;;;;;;;;;;;;;;5068752;28;19932;-53
2023/03/04 07:02:28;;;;;;;;;;;;;;;;;;5068970;28;20293;-58
2023/03/04 07:04:54;;;;;;;;;;;;;;;;;;5068018;28;19970;-57
2023/03/04 07:07:20;;;;;;;;;;;;;;;;;;5070444;28;20500;-57
2023/03/04 07:09:46;;;;;;;;;;;;;;;;;;5068766;28;19920;-56
2023/03/04 07:12:12;;;;;;;;;;;;;;;;;;5069178;28;20002;-57
2023/03/04 07:14:38;;;;;;;;;;;;;;;;;;5069710;28;20058;-57
2023/03/04 07:17:04;;;;;;;;;;;;;;;;;;5069816;28;19927;-51
2023/03/04 07:19:30;;;;;;;;;;;;;;;;;;5068190;28;20017;-57
2023/03/04 07:21:56;;;;;;;;;;;;;;;;;;5069572;28;20396;-57
2023/03/04 07:24:22;;;;;;;;;;;;;;;;;;5069534;28;19925;-56
2023/03/04 07:26:48;;;;;;;;;;;;;;;;;;5052186;28;19983;-57
2023/03/04 07:29:14;;;;;;;;;;;;;;;;;;5063179;28;20386;-58
2023/03/04 07:31:40;;;;;;;;;;;;;;;;;;5062804;28;19931;-57
2023/03/04 07:34:07;;;;;;;;;;;;;;;;;;5069087;28;19932;-57
2023/03/04 07:36:33;;;;;;;;;;;;;;;;;;5065845;28;20337;-57
2023/03/04 07:38:59;;;;;;;;;;;;;;;;;;5069461;28;20710;-54
2023/03/04 07:41:25;;;;;;;;;;;;;;;;;;5065032;28;20431;-57
2023/03/04 07:43:51;;;;;;;;;;;;;;;;;;5068171;28;20373;-57
2023/03/04 07:46:17;;;;;;;;;;;;;;;;;;5068253;28;20007;-57
2023/03/04 07:48:43;;;;;;;;;;;;;;;;;;5066060;28;19925;-55
2023/03/04 07:51:09;;;;;;;;;;;;;;;;;;5068093;28;19932;-56
2023/03/04 07:53:35;;;;;;;;;;;;;;;;;;5067117;28;19932;-56
2023/03/04 07:56:01;;;;;;;;;;;;;;;;;;5063517;28;19979;-56
2023/03/04 07:58:27;;;;;;;;;;;;;;;;;;5065722;28;19932;-55
2023/03/04 08:00:54;;;;;;;;;;;;;;;;;;5066635;28;19975;-56
2023/03/04 08:03:20;;;;;;;;;;;;;;;;;;5067811;28;19925;-56
2023/03/04 08:05:46;;;;;;;;;;;;;;;;;;5065654;28;19933;-56
2023/03/04 08:08:12;;;;;;;;;;;;;;;;;;5066967;28;19928;-56
2023/03/04 08:10:38;;;;;;;;;;;;;;;;;;5066590;28;19987;-56
2023/03/04 08:13:04;;;;;;;;;;;;;;;;;;5065408;28;19928;-55
2023/03/04 08:15:31;;;;;;;;;;;;;;;;;;5066349;28;19932;-57
2023/03/04 08:17:57;;;;;;;;;;;;;;;;;;5064593;28;19932;-54
2023/03/04 08:20:23;;;;;;;;;;;;;;;;;;5064620;28;19924;-52
2023/03/04 08:22:49;;;;;;;;;;;;;;;;;;5063868;28;19925;-56
2023/03/04 08:25:15;;;;;;;;;;;;;;;;;;5065641;28;19995;-55
2023/03/04 08:27:41;;;;;;;;;;;;;;;;;;5063965;28;19943;-56
2023/03/04 08:30:07;;;;;;;;;;;;;;;;;;5063405;28;20138;-56
2023/03/04 08:32:33;;;;;;;;;;;;;;;;;;5065813;28;20430;-52
2023/03/04 08:35:01;;;;;;;;;;;;;;;;;;5057179;28;20006;-56
2023/03/04 08:37:27;;;;;;;;;;;;;;;;;;5065475;28;20304;-57
2023/03/04 08:39:53;;;;;;;;;;;;;;;;;;5066045;28;21789;-56
2023/03/04 08:42:19;;;;;;;;;;;;;;;;;;5065027;28;20003;-57
2023/03/04 08:44:45;;;;;;;;;;;;;;;;;;5065931;28;19925;-52
2023/03/04 08:47:11;;;;;;;;;;;;;;;;;;5063684;28;20007;-57
2023/03/04 08:49:37;;;;;;;;;;;;;;;;;;5065134;28;19971;-54
2023/03/04 08:52:03;;;;;;;;;;;;;;;;;;5063449;28;19929;-57
2023/03/04 08:54:29;;;;;;;;;;;;;;;;;;5048465;28;20365;-55
2023/03/04 08:56:55;;;;;;;;;;;;;;;;;;5059451;28;19971;-57
2023/03/04 08:59:21;;;;;;;;;;;;;;;;;;5062947;28;19932;-55
2023/03/04 09:01:47;;;;;;;;;;;;;;;;;;5065603;28;19924;-56
2023/03/04 09:04:13;;;;;;;;;;;;;;;;;;5063655;28;19985;-56
2023/03/04 09:06:39;;;;;;;;;;;;;;;;;;5064612;28;20277;-57
2023/03/04 09:09:05;;;;;;;;;;;;;;;;;;5063421;28;19978;-54
2023/03/04 09:11:31;;;;;;;;;;;;;;;;;;5065662;28;19932;-53
2023/03/04 09:13:57;;;;;;;;;;;;;;;;;;5062075;28;20021;-56
2023/03/04 09:16:23;;;;;;;;;;;;;;;;;;5065373;28;19924;-52
2023/03/04 09:18:49;;;;;;;;;;;;;;;;;;5064229;28;19924;-57
2023/03/04 09:21:15;;;;;;;;;;;;;;;;;;5064611;28;19931;-55
2023/03/04 09:23:41;;;;;;;;;;;;;;;;;;5059513;28;19936;-57
2023/03/04 09:26:07;;;;;;;;;;;;;;;;;;5058402;28;19928;-56
2023/03/04 09:28:33;;;;;;;;;;;;;;;;;;5061320;28;20015;-56
2023/03/04 09:30:59;;;;;;;;;;;;;;;;;;5053817;28;19928;-55
2023/03/04 09:33:25;;;;;;;;;;;;;;;;;;5058539;28;19925;-57
2023/03/04 09:35:51;;;;;;;;;;;;;;;;;;5059987;28;19924;-57
2023/03/04 09:38:17;;;;;;;;;;;;;;;;;;5057031;28;19948;-57
2023/03/04 09:40:43;;;;;;;;;;;;;;;;;;5056532;28;20382;-53
2023/03/04 09:43:09;;;;;;;;;;;;;;;;;;5045965;28;19924;-54
2023/03/04 09:45:35;;;;;;;;;;;;;;;;;;5070261;28;19931;-56
2023/03/04 09:48:02;;;;;;;;;;;;;;;;;;5067714;28;19925;-55
2023/03/04 09:50:30;;;;;;;;;;;;;;;;;;5067093;28;20025;-57
2023/03/04 09:52:56;;;;;;;;;;;;;;;;;;5062602;28;19925;-54
2023/03/04 09:55:24;;;;;;;;;;;;;;;;;;5057011;28;20080;-56
2023/03/04 09:57:50;;;;;;;;;;;;;;;;;;5069383;28;19963;-56
2023/03/04 10:00:18;;;;;;;;;;;;;;;;;;5064921;28;19967;-55
2023/03/04 10:02:44;;;;;;;;;;;;;;;;;;5068746;28;19933;-56
2023/03/04 10:05:10;;;;;;;;;;;;;;;;;;5063950;28;19978;-55
2023/03/04 10:07:36;;;;;;;;;;;;;;;;;;5063811;28;19929;-57
2023/03/04 10:10:02;;;;;;;;;;;;;;;;;;5069918;28;19966;-56
2023/03/04 10:12:30;;;;;;;;;;;;;;;;;;5064855;28;19928;-57
2023/03/04 10:14:56;;;;;;;;;;;;;;;;;;5067945;28;20285;-55
2023/03/04 10:17:22;;;;;;;;;;;;;;;;;;5069715;28;19925;-56
2023/03/04 10:19:48;;;;;;;;;;;;;;;;;;5069187;28;19933;-54
2023/03/04 10:22:14;;;;;;;;;;;;;;;;;;5069795;28;19938;-57
2023/03/04 10:24:40;;;;;;;;;;;;;;;;;;5069117;28;20292;-55
2023/03/04 10:27:07;;;;;;;;;;;;;;;;;;5070024;28;19965;-57
2023/03/04 10:29:33;;;;;;;;;;;;;;;;;;5069241;28;19931;-55
2023/03/04 10:31:59;;;;;;;;;;;;;;;;;;5069079;28;19925;-57
2023/03/04 10:34:25;;;;;;;;;;;;;;;;;;5068117;28;20007;-56
2023/03/04 10:36:51;;;;;;;;;;;;;;;;;;5069120;28;19932;-57
2023/03/04 10:39:17;;;;;;;;;;;;;;;;;;5068315;28;19928;-57
2023/03/04 10:41:43;;;;;;;;;;;;;;;;;;5068197;28;19985;-51
2023/03/04 10:44:10;;;;;;;;;;;;;;;;;;5068383;28;19928;-57
2023/03/04 10:46:36;;;;;;;;;;;;;;;;;;5068513;28;20587;-57
2023/03/04 10:49:02;;;;;;;;;;;;;;;;;;5066087;28;19935;-57
2023/03/04 10:51:28;;;;;;;;;;;;;;;;;;5067883;28;19951;-56
2023/03/04 10:53:54;;;;;;;;;;;;;;;;;;5064073;28;19925;-56
2023/03/04 10:56:20;;;;;;;;;;;;;;;;;;5068723;28;19928;-56
2023/03/04 10:58:46;;;;;;;;;;;;;;;;;;5067096;28;20344;-56
2023/03/04 11:01:12;;;;;;;;;;;;;;;;;;5065269;28;20423;-55
2023/03/04 11:03:38;;;;;;;;;;;;;;;;;;5066739;28;19932;-56
2023/03/04 11:06:04;;;;;;;;;;;;;;;;;;5065106;28;19924;-54
2023/03/04 11:08:30;;;;;;;;;;;;;;;;;;5064964;28;19925;-57
2023/03/04 11:10:56;;;;;;;;;;;;;;;;;;5063924;28;20374;-54
2023/03/04 11:13:23;;;;;;;;;;;;;;;;;;5066551;28;20289;-57
2023/03/04 11:15:49;;;;;;;;;;;;;;;;;;5068482;28;19931;-56
2023/03/04 11:18:15;;;;;;;;;;;;;;;;;;5067050;28;20279;-56
2023/03/04 11:20:41;;;;;;;;;;;;;;;;;;5065210;28;20396;-56
2023/03/04 11:23:07;;;;;;;;;;;;;;;;;;5059637;28;19924;-57
2023/03/04 11:25:33;;;;;;;;;;;;;;;;;;5052954;28;21797;-56
2023/03/04 11:27:59;;;;;;;;;;;;;;;;;;5058429;28;20289;-57
2023/03/04 11:30:25;;;;;;;;;;;;;;;;;;5063387;28;20362;-56
2023/03/04 11:32:51;;;;;;;;;;;;;;;;;;5063669;28;19924;-54
2023/03/04 11:35:17;;;;;;;;;;;;;;;;;;5063463;28;20007;-56
2023/03/04 11:37:43;;;;;;;;;;;;;;;;;;5043476;28;20470;-55
2023/03/04 11:40:09;;;;;;;;;;;;;;;;;;5065015;28;20023;-56
2023/03/04 11:42:35;;;;;;;;;;;;;;;;;;5062060;28;19983;-57
2023/03/04 11:45:01;;;;;;;;;;;;;;;;;;5064038;28;19964;-57
2023/03/04 11:47:27;;;;;;;;;;;;;;;;;;5068109;28;20003;-57
2023/03/04 11:49:53;;;;;;;;;;;;;;;;;;5064347;28;20304;-56
2023/03/04 11:52:19;;;;;;;;;;;;;;;;;;5064923;28;20400;-56
2023/03/04 11:54:45;;;;;;;;;;;;;;;;;;5064187;28;19927;-56
2023/03/04 11:57:12;;;;;;;;;;;;;;;;;;5064588;28;19924;-57
2023/03/04 11:59:38;;;;;;;;;;;;;;;;;;5061923;28;20309;-55
2023/03/04 12:02:04;;;;;;;;;;;;;;;;;;5063500;28;20875;-56
2023/03/04 12:04:29;;;;;;;;;;;;;;;;;;5061288;28;19924;-56
2023/03/04 12:06:55;;;;;;;;;;;;;;;;;;5062827;28;19928;-58
2023/03/04 12:09:21;;;;;;;;;;;;;;;;;;5064113;28;19928;-56
2023/03/04 12:11:48;;;;;;;;;;;;;;;;;;5063991;28;19932;-56
2023/03/04 12:14:14;;;;;;;;;;;;;;;;;;5064875;28;19935;-55
2023/03/04 12:16:40;;;;;;;;;;;;;;;;;;5063586;28;19928;-56
2023/03/04 12:19:06;;;;;;;;;;;;;;;;;;5064198;28;20393;-57
2023/03/04 12:21:32;;;;;;;;;;;;;;;;;;5064529;28;19928;-55
2023/03/04 12:23:58;;;;;;;;;;;;;;;;;;5065028;28;20054;-56
2023/03/04 12:26:24;;;;;;;;;;;;;;;;;;5063756;28;20430;-55
2023/03/04 12:28:51;;;;;;;;;;;;;;;;;;5065280;28;19989;-56
2023/03/04 12:31:17;;;;;;;;;;;;;;;;;;5061598;28;19935;-56
2023/03/04 12:33:43;;;;;;;;;;;;;;;;;;5061546;28;19924;-57
2023/03/04 12:36:09;;;;;;;;;;;;;;;;;;5063653;28;19929;-56
2023/03/04 12:38:35;;;;;;;;;;;;;;;;;;5062159;28;19935;-55
2023/03/04 12:41:01;;;;;;;;;;;;;;;;;;5063512;28;19928;-56
2023/03/04 12:43:27;;;;;;;;;;;;;;;;;;5063689;28;19939;-56
2023/03/04 12:45:53;;;;;;;;;;;;;;;;;;5063178;28;19929;-57
2023/03/04 12:48:19;;;;;;;;;;;;;;;;;;5062947;28;19940;-57
2023/03/04 12:50:45;;;;;;;;;;;;;;;;;;5058113;28;20392;-57
2023/03/04 12:53:12;;;;;;;;;;;;;;;;;;5063081;28;20046;-56
2023/03/04 12:55:38;;;;;;;;;;;;;;;;;;5060034;28;19928;-57
2023/03/04 12:58:04;;;;;;;;;;;;;;;;;;5059230;28;19925;-57
2023/03/04 13:00:30;;;;;;;;;;;;;;;;;;5063200;28;20328;-57
2023/03/04 13:02:56;;;;;;;;;;;;;;;;;;5056352;28;19982;-56
2023/03/04 13:05:23;;;;;;;;;;;;;;;;;;5046064;28;19978;-56
2023/03/04 13:07:49;;;;;;;;;;;;;;;;;;5067136;28;19939;-56
2023/03/04 13:10:15;;;;;;;;;;;;;;;;;;5067075;28;19924;-57
2023/03/04 13:12:41;;;;;;;;;;;;;;;;;;5066000;28;19932;-56
2023/03/04 13:15:07;;;;;;;;;;;;;;;;;;5067437;28;19947;-57
2023/03/04 13:17:33;;;;;;;;;;;;;;;;;;5067264;28;19935;-57
2023/03/04 13:19:59;;;;;;;;;;;;;;;;;;5068335;28;19947;-56
2023/03/04 13:22:25;;;;;;;;;;;;;;;;;;5067960;28;19928;-57
2023/03/04 13:24:51;;;;;;;;;;;;;;;;;;5068029;28;19954;-56
2023/03/04 13:27:17;;;;;;;;;;;;;;;;;;5068227;28;19925;-57
2023/03/04 13:29:43;;;;;;;;;;;;;;;;;;5066172;28;20629;-56
2023/03/04 13:32:09;;;;;;;;;;;;;;;;;;5065263;28;19928;-57
2023/03/04 13:34:35;;;;;;;;;;;;;;;;;;5066118;28;19936;-55
2023/03/04 13:37:03;;;;;;;;;;;;;;;;;;5064861;28;19928;-58
2023/03/04 13:39:29;;;;;;;;;;;;;;;;;;5065929;28;20024;-57
2023/03/04 13:41:56;;;;;;;;;;;;;;;;;;5065796;28;19932;-56
2023/03/04 13:44:22;;;;;;;;;;;;;;;;;;5062976;28;19928;-55
2023/03/04 13:46:48;;;;;;;;;;;;;;;;;;5064347;28;19955;-54
2023/03/04 13:49:14;;;;;;;;;;;;;;;;;;5065941;28;20386;-55
2023/03/04 13:51:42;;;;;;;;;;;;;;;;;;5065739;28;19935;-57
2023/03/04 13:54:08;;;;;;;;;;;;;;;;;;5067042;28;19993;-56
2023/03/04 13:56:34;;;;;;;;;;;;;;;;;;5066440;28;19929;-56
2023/03/04 13:59:00;;;;;;;;;;;;;;;;;;5064086;28;19925;-57
2023/03/04 14:01:27;;;;;;;;;;;;;;;;;;5066117;28;19928;-57
2023/03/04 14:03:53;;;;;;;;;;;;;;;;;;5064005;28;19974;-57
2023/03/04 14:06:19;;;;;;;;;;;;;;;;;;5066341;28;19951;-56
2023/03/04 14:08:45;;;;;;;;;;;;;;;;;;5065398;28;20670;-57
2023/03/04 14:11:11;;;;;;;;;;;;;;;;;;5065164;28;19957;-56
2023/03/04 14:13:37;;;;;;;;;;;;;;;;;;5065521;28;19924;-57
2023/03/04 14:16:03;;;;;;;;;;;;;;;;;;5065072;28;20304;-56
2023/03/04 14:18:29;;;;;;;;;;;;;;;;;;5064759;28;19936;-57
2023/03/04 14:20:57;;;;;;;;;;;;;;;;;;5048484;28;19924;-57
2023/03/04 14:23:24;;;;;;;;;;;;;;;;;;5064359;28;19939;-58
2023/03/04 14:25:50;;;;;;;;;;;;;;;;;;5066496;28;19967;-56
2023/03/04 14:28:16;;;;;;;;;;;;;;;;;;5066163;28;19931;-58
2023/03/04 14:30:42;;;;;;;;;;;;;;;;;;5065206;28;19933;-56
2023/03/04 14:33:08;;;;;;;;;;;;;;;;;;5060555;28;20362;-56
2023/03/04 14:35:34;;;;;;;;;;;;;;;;;;5063641;28;20017;-54
2023/03/04 14:38:00;;;;;;;;;;;;;;;;;;5064691;28;19935;-50
2023/03/04 14:40:26;;;;;;;;;;;;;;;;;;5064066;28;19925;-56
2023/03/04 14:42:52;;;;;;;;;;;;;;;;;;5064962;28;20438;-56
2023/03/04 14:45:18;;;;;;;;;;;;;;;;;;5064023;28;20030;-56
2023/03/04 14:47:46;;;;;;;;;;;;;;;;;;5062518;28;19931;-56
2023/03/04 14:50:12;;;;;;;;;;;;;;;;;;5064844;28;20431;-57
2023/03/04 14:52:38;;;;;;;;;;;;;;;;;;5063126;28;20372;-57
2023/03/04 14:55:04;;;;;;;;;;;;;;;;;;5064568;28;20390;-56
2023/03/04 14:57:31;;;;;;;;;;;;;;;;;;5062928;28;20665;-53
2023/03/04 14:59:57;;;;;;;;;;;;;;;;;;5064247;28;20051;-56
2023/03/04 15:02:23;;;;;;;;;;;;;;;;;;5061993;28;20039;-57
2023/03/04 15:04:50;;;;;;;;;;;;;;;;;;5066339;28;19954;-57
2023/03/04 15:07:18;;;;;;;;;;;;;;;;;;5062750;28;19932;-58
2023/03/04 15:09:44;;;;;;;;;;;;;;;;;;5066722;28;19939;-51
2023/03/04 15:12:10;;;;;;;;;;;;;;;;;;5063431;28;20073;-55
2023/03/04 15:14:36;;;;;;;;;;;;;;;;;;5058674;28;19924;-56
2023/03/04 15:17:03;;;;;;;;;;;;;;;;;;5054948;28;19927;-57
2023/03/04 15:19:29;;;;;;;;;;;;;;;;;;5063379;28;20396;-54
2023/03/04 15:21:55;;;;;;;;;;;;;;;;;;5051879;28;20472;-53
2023/03/04 15:24:21;;;;;;;;;;;;;;;;;;5061408;28;19928;-56
2023/03/04 15:26:49;;;;;;;;;;;;;;;;;;5067478;28;19931;-53
2023/03/04 15:29:15;;;;;;;;;;;;;;;;;;5066115;28;19925;-56
2023/03/04 15:31:42;;;;;;;;;;;;;;;;;;5062109;28;19925;-56
2023/03/04 15:34:08;;;;;;;;;;;;;;;;;;5049418;28;19924;-54
2023/03/04 15:36:34;;;;;;;;;;;;;;;;;;5056696;28;19925;-55
2023/03/04 15:39:00;;;;;;;;;;;;;;;;;;5056610;28;19924;-57
2023/03/04 15:41:26;;;;;;;;;;;;;;;;;;5055142;28;19931;-56
2023/03/04 15:43:52;;;;;;;;;;;;;;;;;;5063771;28;19924;-49
2023/03/04 15:46:18;;;;;;;;;;;;;;;;;;5059674;28;19925;-57
2023/03/04 15:48:44;;;;;;;;;;;;;;;;;;5057785;28;20008;-51
2023/03/04 15:51:10;;;;;;;;;;;;;;;;;;5067056;28;20019;-57
2023/03/04 15:53:36;;;;;;;;;;;;;;;;;;5064217;28;19932;-55
2023/03/04 15:56:02;;;;;;;;;;;;;;;;;;5058393;28;19924;-57
2023/03/04 15:58:28;;;;;;;;;;;;;;;;;;5066266;28;19951;-57
2023/03/04 16:00:54;;;;;;;;;;;;;;;;;;5064781;28;19978;-57
2023/03/04 16:03:20;;;;;;;;;;;;;;;;;;5066131;28;19932;-57
2023/03/04 16:05:47;;;;;;;;;;;;;;;;;;5060284;28;19932;-57
2023/03/04 16:08:13;;;;;;;;;;;;;;;;;;5064190;28;19932;-57
2023/03/04 16:10:39;;;;;;;;;;;;;;;;;;5064908;28;19933;-50
2023/03/04 16:13:05;;;;;;;;;;;;;;;;;;5058193;28;19975;-57
2023/03/04 16:15:31;;;;;;;;;;;;;;;;;;5061404;28;19928;-52
2023/03/04 16:17:58;;;;;;;;;;;;;;;;;;5064572;28;19978;-57
2023/03/04 16:20:24;;;;;;;;;;;;;;;;;;5065918;28;19979;-57
2023/03/04 16:22:50;;;;;;;;;;;;;;;;;;5065777;28;19924;-56
2023/03/04 16:25:16;;;;;;;;;;;;;;;;;;5063623;28;19924;-55
2023/03/04 16:27:42;;;;;;;;;;;;;;;;;;5065512;28;20373;-57
2023/03/04 16:30:08;;;;;;;;;;;;;;;;;;5063553;28;19929;-58
2023/03/04 16:32:34;;;;;;;;;;;;;;;;;;5065026;28;19970;-57
2023/03/04 16:35:01;;;;;;;;;;;;;;;;;;5052803;28;19925;-57
2023/03/04 16:37:27;;;;;;;;;;;;;;;;;;5065686;28;19947;-57